Etusivu
METAR-TAF:

METAR-TAF

Lentoasemat :

Brighton, Englanti

Leveyspiiri: 50-50N, Pituuspiiri: 000-17W, korkeus merenpinnasta: 2 m

Tämänhetkinen sää

Tämä raportti tehtiin 7 tuntia ja 48 minuuttia sitten, kello 19.50 UTC
Tuuli 2 kn koillisesta
Lämpötila 6°C
Kosteus 93%
Ilmanpaine 1023 hPa
Näkyvyys 10 km tai enemmän
Hajanaisia pilviä 4000 ft:n korkeudessa

METAR: EGKA 181950Z 04002KT 9999 SCT040 06/05 Q1023

Aika: 03:38 (03:38 UTC)

Sääennuste

Tämä raportti tehtiin 13 tuntia ja 41 minuuttia sitten, kello 13.57 UTC
Ennuste voimassa 18. päivästä klo 15 UTC - 18. päivään klo 19 UTC
Tuuli 10 kn lännestä
Näkyvyys 10 km tai enemmän
Hajanaisia pilviä 3500 ft:n korkeudessa
Todennäköisyys 30% :
Ajoittain
18. päivästä klo 15 UTC - 18. päivään klo 19 UTC
Tuuli 5 kn eri suunnista
Näkyvyys: 6000 m
vesikuuroja

TAF: EGKA 181357Z 1815/1819 27010KT 9999 SCT035 PROB30 TEMPO 1815/1819 VRB05KT 6000 SHRA

Säähavainnot ja -ennusteet yli 4000 lentoasemalta (METAR- ja TAF-raportit).

Käytössä olevat sääasemat on merkitty karttaan keltaisilla ja punaisilla pisteillä.

Aseta hiiri pisteen päälle nähdäksesi sääaseman nimen.

Klikkaa sitten nähdäksesi säähavainnot ja -ennusteet.

Kartan vaihtaminen: klikkaa mustalla rastilla varustettuja vihreitä pisteitä, niin voit zoomata sisään; viivalla varustettua vihreää pistettä, niin voit zoomata ulos tai vihreitä nuolia, niin pääset viereisille kartoille.


METAR-TAF: